sensor_id;sensor_type;location;lat;lon;timestamp;temperature;humidity
67182;DHT22;54114;53.524;49.396;2023-01-29T00:01:50;-3.10;72.60
67182;DHT22;54114;53.524;49.396;2023-01-29T00:04:17;-3.20;72.50
67182;DHT22;54114;53.524;49.396;2023-01-29T00:06:43;-3.10;72.60
67182;DHT22;54114;53.524;49.396;2023-01-29T00:09:10;-3.20;72.60
67182;DHT22;54114;53.524;49.396;2023-01-29T00:11:37;-3.20;72.70
67182;DHT22;54114;53.524;49.396;2023-01-29T00:14:04;-3.20;72.80
67182;DHT22;54114;53.524;49.396;2023-01-29T00:16:31;-3.10;72.70
67182;DHT22;54114;53.524;49.396;2023-01-29T00:18:57;-3.20;72.80
67182;DHT22;54114;53.524;49.396;2023-01-29T00:21:23;-3.20;72.70
67182;DHT22;54114;53.524;49.396;2023-01-29T00:23:50;-3.20;72.90
67182;DHT22;54114;53.524;49.396;2023-01-29T00:26:17;-3.20;72.90
67182;DHT22;54114;53.524;49.396;2023-01-29T00:28:43;-3.10;73.00
67182;DHT22;54114;53.524;49.396;2023-01-29T00:31:10;-3.10;72.90
67182;DHT22;54114;53.524;49.396;2023-01-29T00:33:38;-3.10;72.70
67182;DHT22;54114;53.524;49.396;2023-01-29T00:36:12;-3.10;72.70
67182;DHT22;54114;53.524;49.396;2023-01-29T00:38:39;-3.10;72.70
67182;DHT22;54114;53.524;49.396;2023-01-29T00:41:06;-3.10;72.60
67182;DHT22;54114;53.524;49.396;2023-01-29T00:43:52;-3.10;72.60
67182;DHT22;54114;53.524;49.396;2023-01-29T00:46:37;-3.10;72.50
67182;DHT22;54114;53.524;49.396;2023-01-29T00:49:03;-3.10;72.30
67182;DHT22;54114;53.524;49.396;2023-01-29T00:51:30;-3.10;72.70
67182;DHT22;54114;53.524;49.396;2023-01-29T00:53:57;-3.10;72.50
67182;DHT22;54114;53.524;49.396;2023-01-29T00:56:24;-3.10;72.50
67182;DHT22;54114;53.524;49.396;2023-01-29T00:58:51;-3.10;72.40
67182;DHT22;54114;53.524;49.396;2023-01-29T01:01:17;-3.10;72.50
67182;DHT22;54114;53.524;49.396;2023-01-29T01:04:04;-3.10;72.50
67182;DHT22;54114;53.524;49.396;2023-01-29T01:06:31;-3.10;72.40
67182;DHT22;54114;53.524;49.396;2023-01-29T01:08:57;-3.10;72.40
67182;DHT22;54114;53.524;49.396;2023-01-29T01:11:42;-3.10;73.00
67182;DHT22;54114;53.524;49.396;2023-01-29T01:14:08;-3.10;72.40
67182;DHT22;54114;53.524;49.396;2023-01-29T01:16:35;-3.10;72.30
67182;DHT22;54114;53.524;49.396;2023-01-29T01:19:02;-3.10;72.40
67182;DHT22;54114;53.524;49.396;2023-01-29T01:21:28;-3.10;72.40
67182;DHT22;54114;53.524;49.396;2023-01-29T01:23:55;-3.10;72.40
67182;DHT22;54114;53.524;49.396;2023-01-29T01:26:21;-3.10;72.40
67182;DHT22;54114;53.524;49.396;2023-01-29T01:28:48;-3.10;72.40
67182;DHT22;54114;53.524;49.396;2023-01-29T01:31:14;-3.10;72.30
67182;DHT22;54114;53.524;49.396;2023-01-29T01:33:40;-3.20;72.20
67182;DHT22;54114;53.524;49.396;2023-01-29T01:36:09;-3.20;72.30
67182;DHT22;54114;53.524;49.396;2023-01-29T01:38:38;-3.20;72.40
67182;DHT22;54114;53.524;49.396;2023-01-29T01:41:13;-3.20;72.50
67182;DHT22;54114;53.524;49.396;2023-01-29T01:43:51;-3.20;72.50
67182;DHT22;54114;53.524;49.396;2023-01-29T01:46:27;-3.20;72.40
67182;DHT22;54114;53.524;49.396;2023-01-29T01:48:58;-3.30;72.20
67182;DHT22;54114;53.524;49.396;2023-01-29T01:51:35;-3.30;72.40
67182;DHT22;54114;53.524;49.396;2023-01-29T01:54:08;-3.30;72.40
67182;DHT22;54114;53.524;49.396;2023-01-29T01:56:41;-3.40;72.40
67182;DHT22;54114;53.524;49.396;2023-01-29T01:59:11;-3.40;72.40
67182;DHT22;54114;53.524;49.396;2023-01-29T02:01:38;-3.40;72.40
67182;DHT22;54114;53.524;49.396;2023-01-29T02:04:11;-3.40;72.50
67182;DHT22;54114;53.524;49.396;2023-01-29T02:07:02;-3.40;72.40
67182;DHT22;54114;53.524;49.396;2023-01-29T02:09:50;-3.50;72.30
67182;DHT22;54114;53.524;49.396;2023-01-29T02:12:21;-3.50;72.40
67182;DHT22;54114;53.524;49.396;2023-01-29T02:14:48;-3.60;72.40
67182;DHT22;54114;53.524;49.396;2023-01-29T02:17:16;-3.60;72.50
67182;DHT22;54114;53.524;49.396;2023-01-29T02:20:47;-3.60;72.80
67182;DHT22;54114;53.524;49.396;2023-01-29T02:25:52;-3.70;72.60
67182;DHT22;54114;53.524;49.396;2023-01-29T02:28:31;-3.70;72.60
67182;DHT22;54114;53.524;49.396;2023-01-29T02:42:16;-3.80;72.80
67182;DHT22;54114;53.524;49.396;2023-01-29T02:47:35;-3.80;72.90
67182;DHT22;54114;53.524;49.396;2023-01-29T02:55:29;-3.80;72.80
67182;DHT22;54114;53.524;49.396;2023-01-29T02:58:02;-3.80;72.60
67182;DHT22;54114;53.524;49.396;2023-01-29T03:00:55;-3.80;72.60
67182;DHT22;54114;53.524;49.396;2023-01-29T03:03:25;-3.80;72.60
67182;DHT22;54114;53.524;49.396;2023-01-29T03:06:02;-3.90;72.70
67182;DHT22;54114;53.524;49.396;2023-01-29T03:08:32;-3.90;72.60
67182;DHT22;54114;53.524;49.396;2023-01-29T03:11:09;-3.90;72.80
67182;DHT22;54114;53.524;49.396;2023-01-29T03:13:40;-3.90;72.70
67182;DHT22;54114;53.524;49.396;2023-01-29T03:16:23;-3.90;72.50
67182;DHT22;54114;53.524;49.396;2023-01-29T03:19:00;-3.90;72.50
67182;DHT22;54114;53.524;49.396;2023-01-29T03:21:29;-4.00;72.50
67182;DHT22;54114;53.524;49.396;2023-01-29T03:24:18;-4.00;72.70
67182;DHT22;54114;53.524;49.396;2023-01-29T03:27:06;-4.00;72.70
67182;DHT22;54114;53.524;49.396;2023-01-29T03:29:52;-4.00;72.50
67182;DHT22;54114;53.524;49.396;2023-01-29T03:32:38;-4.10;72.50
67182;DHT22;54114;53.524;49.396;2023-01-29T03:35:05;-4.10;72.60
67182;DHT22;54114;53.524;49.396;2023-01-29T03:37:35;-4.10;72.60
67182;DHT22;54114;53.524;49.396;2023-01-29T03:40:07;-4.20;73.30
67182;DHT22;54114;53.524;49.396;2023-01-29T03:47:49;-4.20;72.70
67182;DHT22;54114;53.524;49.396;2023-01-29T03:56:03;-4.20;72.50
67182;DHT22;54114;53.524;49.396;2023-01-29T04:01:03;-4.20;72.60
67182;DHT22;54114;53.524;49.396;2023-01-29T04:03:36;-4.20;72.30
67182;DHT22;54114;53.524;49.396;2023-01-29T04:09:04;-4.20;72.50
67182;DHT22;54114;53.524;49.396;2023-01-29T04:11:40;-4.30;72.30
67182;DHT22;54114;53.524;49.396;2023-01-29T04:14:10;-4.20;72.40
67182;DHT22;54114;53.524;49.396;2023-01-29T04:16:38;-4.20;72.40
67182;DHT22;54114;53.524;49.396;2023-01-29T04:19:06;-4.30;72.10
67182;DHT22;54114;53.524;49.396;2023-01-29T04:21:33;-4.30;72.20
67182;DHT22;54114;53.524;49.396;2023-01-29T04:24:02;-4.30;72.10
67182;DHT22;54114;53.524;49.396;2023-01-29T04:26:54;-4.30;72.30
67182;DHT22;54114;53.524;49.396;2023-01-29T04:32:10;-4.30;72.10
67182;DHT22;54114;53.524;49.396;2023-01-29T04:40:43;-4.40;72.10
67182;DHT22;54114;53.524;49.396;2023-01-29T04:45:27;-4.40;72.20
67182;DHT22;54114;53.524;49.396;2023-01-29T04:48:29;-4.40;72.10
67182;DHT22;54114;53.524;49.396;2023-01-29T04:51:19;-4.50;72.10
67182;DHT22;54114;53.524;49.396;2023-01-29T04:54:15;-4.50;72.20
67182;DHT22;54114;53.524;49.396;2023-01-29T04:59:53;-4.50;72.30
67182;DHT22;54114;53.524;49.396;2023-01-29T05:02:42;-4.50;72.30
67182;DHT22;54114;53.524;49.396;2023-01-29T05:05:10;-4.50;72.30
67182;DHT22;54114;53.524;49.396;2023-01-29T05:07:38;-4.60;72.20
67182;DHT22;54114;53.524;49.396;2023-01-29T05:10:06;-4.60;72.40
67182;DHT22;54114;53.524;49.396;2023-01-29T05:12:33;-4.60;72.40
67182;DHT22;54114;53.524;49.396;2023-01-29T05:15:02;-4.60;72.40
67182;DHT22;54114;53.524;49.396;2023-01-29T05:17:32;-4.70;72.30
67182;DHT22;54114;53.524;49.396;2023-01-29T05:19:58;-4.70;72.40
67182;DHT22;54114;53.524;49.396;2023-01-29T05:22:24;-4.70;72.50
67182;DHT22;54114;53.524;49.396;2023-01-29T05:24:51;-4.60;72.50
67182;DHT22;54114;53.524;49.396;2023-01-29T05:27:29;-4.70;72.50
67182;DHT22;54114;53.524;49.396;2023-01-29T05:30:16;-4.60;72.60
67182;DHT22;54114;53.524;49.396;2023-01-29T05:32:42;-4.60;72.60
67182;DHT22;54114;53.524;49.396;2023-01-29T05:35:09;-4.60;72.50
67182;DHT22;54114;53.524;49.396;2023-01-29T05:37:35;-4.60;72.40
67182;DHT22;54114;53.524;49.396;2023-01-29T05:40:02;-4.60;72.10
67182;DHT22;54114;53.524;49.396;2023-01-29T05:42:28;-4.60;72.00
67182;DHT22;54114;53.524;49.396;2023-01-29T05:44:54;-4.60;72.10
67182;DHT22;54114;53.524;49.396;2023-01-29T05:47:21;-4.60;71.90
67182;DHT22;54114;53.524;49.396;2023-01-29T05:49:47;-4.60;71.70
67182;DHT22;54114;53.524;49.396;2023-01-29T05:52:14;-4.60;71.60
67182;DHT22;54114;53.524;49.396;2023-01-29T05:54:40;-4.60;71.70
67182;DHT22;54114;53.524;49.396;2023-01-29T05:57:06;-4.60;71.70
67182;DHT22;54114;53.524;49.396;2023-01-29T05:59:33;-4.60;71.50
67182;DHT22;54114;53.524;49.396;2023-01-29T06:01:59;-4.60;71.50
67182;DHT22;54114;53.524;49.396;2023-01-29T06:04:26;-4.50;71.60
67182;DHT22;54114;53.524;49.396;2023-01-29T06:06:52;-4.50;71.50
67182;DHT22;54114;53.524;49.396;2023-01-29T06:09:18;-4.50;71.40
67182;DHT22;54114;53.524;49.396;2023-01-29T06:11:45;-4.50;71.20
67182;DHT22;54114;53.524;49.396;2023-01-29T06:14:11;-4.40;71.30
67182;DHT22;54114;53.524;49.396;2023-01-29T06:16:37;-4.40;71.00
67182;DHT22;54114;53.524;49.396;2023-01-29T06:19:04;-4.30;71.70
67182;DHT22;54114;53.524;49.396;2023-01-29T06:21:36;-4.30;71.00
67182;DHT22;54114;53.524;49.396;2023-01-29T06:24:02;-4.30;70.90
67182;DHT22;54114;53.524;49.396;2023-01-29T06:26:29;-4.20;70.70
67182;DHT22;54114;53.524;49.396;2023-01-29T06:29:13;-4.20;70.70
67182;DHT22;54114;53.524;49.396;2023-01-29T06:31:40;-4.10;70.70
67182;DHT22;54114;53.524;49.396;2023-01-29T06:34:06;-4.10;70.50
67182;DHT22;54114;53.524;49.396;2023-01-29T06:36:33;-4.00;70.20
67182;DHT22;54114;53.524;49.396;2023-01-29T06:38:59;-3.90;70.10
67182;DHT22;54114;53.524;49.396;2023-01-29T06:41:32;-3.90;70.10
67182;DHT22;54114;53.524;49.396;2023-01-29T06:43:59;-3.70;70.50
67182;DHT22;54114;53.524;49.396;2023-01-29T06:46:25;-3.50;70.50
67182;DHT22;54114;53.524;49.396;2023-01-29T06:48:52;-3.30;69.80
67182;DHT22;54114;53.524;49.396;2023-01-29T06:51:18;-3.20;69.50
67182;DHT22;54114;53.524;49.396;2023-01-29T06:53:51;-2.90;69.50
67182;DHT22;54114;53.524;49.396;2023-01-29T06:56:21;-2.70;69.00
67182;DHT22;54114;53.524;49.396;2023-01-29T06:58:47;-2.50;68.40
67182;DHT22;54114;53.524;49.396;2023-01-29T07:01:14;-2.40;67.80
67182;DHT22;54114;53.524;49.396;2023-01-29T07:03:47;-2.30;67.70
67182;DHT22;54114;53.524;49.396;2023-01-29T07:06:15;-2.20;66.90
67182;DHT22;54114;53.524;49.396;2023-01-29T07:08:42;-2.10;66.50
67182;DHT22;54114;53.524;49.396;2023-01-29T07:11:08;-1.90;66.70
67182;DHT22;54114;53.524;49.396;2023-01-29T07:13:34;-1.50;66.40
67182;DHT22;54114;53.524;49.396;2023-01-29T07:16:01;-1.10;65.30
67182;DHT22;54114;53.524;49.396;2023-01-29T07:18:29;-1.00;63.60
67182;DHT22;54114;53.524;49.396;2023-01-29T07:20:56;-0.90;63.30
67182;DHT22;54114;53.524;49.396;2023-01-29T07:23:23;-0.70;62.70
67182;DHT22;54114;53.524;49.396;2023-01-29T07:25:49;-0.30;62.60
67182;DHT22;54114;53.524;49.396;2023-01-29T07:28:17;0.20;61.70
67182;DHT22;54114;53.524;49.396;2023-01-29T07:30:43;0.70;60.90
67182;DHT22;54114;53.524;49.396;2023-01-29T07:33:10;1.00;59.40
67182;DHT22;54114;53.524;49.396;2023-01-29T07:35:40;1.20;56.70
67182;DHT22;54114;53.524;49.396;2023-01-29T07:38:08;1.40;56.80
67182;DHT22;54114;53.524;49.396;2023-01-29T07:40:35;1.60;56.50
67182;DHT22;54114;53.524;49.396;2023-01-29T07:43:02;1.90;55.60
67182;DHT22;54114;53.524;49.396;2023-01-29T07:45:30;2.10;55.00
67182;DHT22;54114;53.524;49.396;2023-01-29T07:47:56;2.20;54.50
67182;DHT22;54114;53.524;49.396;2023-01-29T07:50:23;2.20;53.50
67182;DHT22;54114;53.524;49.396;2023-01-29T07:52:50;2.30;53.70
67182;DHT22;54114;53.524;49.396;2023-01-29T07:55:16;2.40;53.80
67182;DHT22;54114;53.524;49.396;2023-01-29T07:57:43;2.60;53.40
67182;DHT22;54114;53.524;49.396;2023-01-29T08:00:09;2.80;53.20
67182;DHT22;54114;53.524;49.396;2023-01-29T08:02:36;3.10;52.80
67182;DHT22;54114;53.524;49.396;2023-01-29T08:05:03;3.30;51.60
67182;DHT22;54114;53.524;49.396;2023-01-29T08:07:29;3.30;50.30
67182;DHT22;54114;53.524;49.396;2023-01-29T08:09:55;3.30;48.60
67182;DHT22;54114;53.524;49.396;2023-01-29T08:12:22;3.30;48.70
67182;DHT22;54114;53.524;49.396;2023-01-29T08:14:54;3.30;48.80
67182;DHT22;54114;53.524;49.396;2023-01-29T08:17:27;3.20;48.80
67182;DHT22;54114;53.524;49.396;2023-01-29T08:19:53;3.20;48.90
67182;DHT22;54114;53.524;49.396;2023-01-29T08:22:20;3.20;49.10
67182;DHT22;54114;53.524;49.396;2023-01-29T08:24:46;3.40;48.80
67182;DHT22;54114;53.524;49.396;2023-01-29T08:27:12;3.70;48.60
67182;DHT22;54114;53.524;49.396;2023-01-29T08:29:51;3.90;48.20
67182;DHT22;54114;53.524;49.396;2023-01-29T08:32:17;4.00;47.40
67182;DHT22;54114;53.524;49.396;2023-01-29T08:34:43;3.90;46.30
67182;DHT22;54114;53.524;49.396;2023-01-29T08:37:22;4.00;46.10
67182;DHT22;54114;53.524;49.396;2023-01-29T08:39:56;4.10;45.50
67182;DHT22;54114;53.524;49.396;2023-01-29T08:42:24;4.20;45.40
67182;DHT22;54114;53.524;49.396;2023-01-29T08:44:50;4.20;44.30
67182;DHT22;54114;53.524;49.396;2023-01-29T08:47:17;4.10;44.20
67182;DHT22;54114;53.524;49.396;2023-01-29T08:49:44;3.80;44.30
67182;DHT22;54114;53.524;49.396;2023-01-29T08:52:10;3.40;44.50
67182;DHT22;54114;53.524;49.396;2023-01-29T08:54:37;3.00;44.40
67182;DHT22;54114;53.524;49.396;2023-01-29T08:57:04;2.70;44.80
67182;DHT22;54114;53.524;49.396;2023-01-29T08:59:32;2.60;44.80
67182;DHT22;54114;53.524;49.396;2023-01-29T09:01:58;2.50;45.30
67182;DHT22;54114;53.524;49.396;2023-01-29T09:04:25;2.30;44.90
67182;DHT22;54114;53.524;49.396;2023-01-29T09:06:52;2.30;44.50
67182;DHT22;54114;53.524;49.396;2023-01-29T09:09:22;2.20;44.10
67182;DHT22;54114;53.524;49.396;2023-01-29T09:11:49;2.10;44.40
67182;DHT22;54114;53.524;49.396;2023-01-29T09:14:16;2.00;45.00
67182;DHT22;54114;53.524;49.396;2023-01-29T09:16:43;2.00;45.70
67182;DHT22;54114;53.524;49.396;2023-01-29T09:19:12;2.20;46.10
67182;DHT22;54114;53.524;49.396;2023-01-29T09:21:59;2.40;46.00
67182;DHT22;54114;53.524;49.396;2023-01-29T09:24:37;2.50;46.00
67182;DHT22;54114;53.524;49.396;2023-01-29T09:27:10;2.50;44.90
67182;DHT22;54114;53.524;49.396;2023-01-29T09:29:51;2.50;44.80
67182;DHT22;54114;53.524;49.396;2023-01-29T09:32:37;2.50;44.80
67182;DHT22;54114;53.524;49.396;2023-01-29T09:35:07;2.50;44.00
67182;DHT22;54114;53.524;49.396;2023-01-29T09:37:34;2.40;44.30
67182;DHT22;54114;53.524;49.396;2023-01-29T09:40:00;2.20;44.10
67182;DHT22;54114;53.524;49.396;2023-01-29T09:47:28;1.70;45.00
67182;DHT22;54114;53.524;49.396;2023-01-29T09:50:01;1.80;45.30
67182;DHT22;54114;53.524;49.396;2023-01-29T09:57:50;2.20;45.30
67182;DHT22;54114;53.524;49.396;2023-01-29T10:00:31;2.50;45.10
67182;DHT22;54114;53.524;49.396;2023-01-29T10:03:23;2.70;45.00
67182;DHT22;54114;53.524;49.396;2023-01-29T10:12:48;3.70;44.00
67182;DHT22;54114;53.524;49.396;2023-01-29T10:15:33;4.20;44.00
67182;DHT22;54114;53.524;49.396;2023-01-29T10:21:04;4.60;42.60
67182;DHT22;54114;53.524;49.396;2023-01-29T10:23:41;4.50;42.40
67182;DHT22;54114;53.524;49.396;2023-01-29T10:26:22;4.40;42.80
67182;DHT22;54114;53.524;49.396;2023-01-29T10:29:04;4.30;42.70
67182;DHT22;54114;53.524;49.396;2023-01-29T10:31:33;4.00;42.10
67182;DHT22;54114;53.524;49.396;2023-01-29T10:36:51;3.30;41.70
67182;DHT22;54114;53.524;49.396;2023-01-29T10:39:19;2.90;42.50
67182;DHT22;54114;53.524;49.396;2023-01-29T10:41:56;2.50;42.50
67182;DHT22;54114;53.524;49.396;2023-01-29T10:44:32;2.20;43.40
67182;DHT22;54114;53.524;49.396;2023-01-29T10:55:45;1.70;44.30
67182;DHT22;54114;53.524;49.396;2023-01-29T10:58:29;1.80;44.70
67182;DHT22;54114;53.524;49.396;2023-01-29T11:01:00;2.00;44.70
67182;DHT22;54114;53.524;49.396;2023-01-29T11:03:27;2.30;44.80
67182;DHT22;54114;53.524;49.396;2023-01-29T11:06:10;2.70;44.50
67182;DHT22;54114;53.524;49.396;2023-01-29T11:08:45;3.00;44.20
67182;DHT22;54114;53.524;49.396;2023-01-29T11:11:18;3.30;43.90
67182;DHT22;54114;53.524;49.396;2023-01-29T11:14:00;3.40;43.50
67182;DHT22;54114;53.524;49.396;2023-01-29T11:16:38;3.50;43.30
67182;DHT22;54114;53.524;49.396;2023-01-29T11:19:09;3.60;42.70
67182;DHT22;54114;53.524;49.396;2023-01-29T11:21:58;3.60;42.70
67182;DHT22;54114;53.524;49.396;2023-01-29T11:24:26;3.60;42.10
67182;DHT22;54114;53.524;49.396;2023-01-29T11:26:56;3.50;42.30
67182;DHT22;54114;53.524;49.396;2023-01-29T11:29:28;3.40;42.60
67182;DHT22;54114;53.524;49.396;2023-01-29T11:34:57;2.90;41.90
67182;DHT22;54114;53.524;49.396;2023-01-29T11:37:40;2.60;42.00
67182;DHT22;54114;53.524;49.396;2023-01-29T11:40:37;2.30;42.30
67182;DHT22;54114;53.524;49.396;2023-01-29T11:45:54;1.80;42.90
67182;DHT22;54114;53.524;49.396;2023-01-29T11:48:43;1.80;43.40
67182;DHT22;54114;53.524;49.396;2023-01-29T11:51:22;1.80;43.50
67182;DHT22;54114;53.524;49.396;2023-01-29T11:53:51;1.80;43.50
67182;DHT22;54114;53.524;49.396;2023-01-29T11:56:21;1.80;43.50
67182;DHT22;54114;53.524;49.396;2023-01-29T11:59:24;1.70;43.40
67182;DHT22;54114;53.524;49.396;2023-01-29T12:02:18;1.70;43.90
67182;DHT22;54114;53.524;49.396;2023-01-29T12:04:46;1.80;44.10
67182;DHT22;54114;53.524;49.396;2023-01-29T12:07:13;1.90;44.10
67182;DHT22;54114;53.524;49.396;2023-01-29T12:09:46;2.00;44.00
67182;DHT22;54114;53.524;49.396;2023-01-29T12:12:16;2.10;44.00
67182;DHT22;54114;53.524;49.396;2023-01-29T12:15:34;2.20;43.90
67182;DHT22;54114;53.524;49.396;2023-01-29T12:17:49;2.20;43.90
67182;DHT22;54114;53.524;49.396;2023-01-29T12:20:32;2.20;43.70
67182;DHT22;54114;53.524;49.396;2023-01-29T12:23:11;2.20;43.90
67182;DHT22;54114;53.524;49.396;2023-01-29T12:25:54;2.10;43.90
67182;DHT22;54114;53.524;49.396;2023-01-29T12:28:30;1.90;43.80
67182;DHT22;54114;53.524;49.396;2023-01-29T12:33:56;1.40;44.20
67182;DHT22;54114;53.524;49.396;2023-01-29T12:36:32;1.20;44.30
67182;DHT22;54114;53.524;49.396;2023-01-29T12:39:03;1.00;44.50
67182;DHT22;54114;53.524;49.396;2023-01-29T12:41:35;0.70;44.30
67182;DHT22;54114;53.524;49.396;2023-01-29T12:44:13;0.40;44.70
67182;DHT22;54114;53.524;49.396;2023-01-29T12:46:45;0.10;45.10
67182;DHT22;54114;53.524;49.396;2023-01-29T12:49:16;-0.10;45.30
67182;DHT22;54114;53.524;49.396;2023-01-29T12:51:48;-0.30;45.70
67182;DHT22;54114;53.524;49.396;2023-01-29T12:54:23;-0.50;45.90
67182;DHT22;54114;53.524;49.396;2023-01-29T12:57:20;-0.70;46.30
67182;DHT22;54114;53.524;49.396;2023-01-29T12:59:57;-0.90;46.60
67182;DHT22;54114;53.524;49.396;2023-01-29T13:02:44;-1.10;46.80
67182;DHT22;54114;53.524;49.396;2023-01-29T13:05:33;-1.30;47.00
67182;DHT22;54114;53.524;49.396;2023-01-29T13:08:38;-1.40;47.20
67182;DHT22;54114;53.524;49.396;2023-01-29T13:11:11;-1.60;47.50
67182;DHT22;54114;53.524;49.396;2023-01-29T13:14:24;-1.70;47.90
67182;DHT22;54114;53.524;49.396;2023-01-29T13:16:56;-1.90;48.00
67182;DHT22;54114;53.524;49.396;2023-01-29T13:19:43;-2.20;48.20
67182;DHT22;54114;53.524;49.396;2023-01-29T13:22:25;-2.40;48.60
67182;DHT22;54114;53.524;49.396;2023-01-29T13:24:53;-2.50;49.00
67182;DHT22;54114;53.524;49.396;2023-01-29T13:27:28;-2.70;49.10
67182;DHT22;54114;53.524;49.396;2023-01-29T13:29:56;-2.80;49.30
67182;DHT22;54114;53.524;49.396;2023-01-29T13:32:24;-2.90;49.70
67182;DHT22;54114;53.524;49.396;2023-01-29T13:34:52;-3.00;50.00
67182;DHT22;54114;53.524;49.396;2023-01-29T13:37:26;-3.10;50.20
67182;DHT22;54114;53.524;49.396;2023-01-29T13:39:55;-3.20;50.50
67182;DHT22;54114;53.524;49.396;2023-01-29T13:42:24;-3.30;50.80
67182;DHT22;54114;53.524;49.396;2023-01-29T13:45:00;-3.40;51.10
67182;DHT22;54114;53.524;49.396;2023-01-29T13:47:29;-3.60;51.40
67182;DHT22;54114;53.524;49.396;2023-01-29T13:55:02;-3.90;52.10
67182;DHT22;54114;53.524;49.396;2023-01-29T14:00:54;-4.10;52.60
67182;DHT22;54114;53.524;49.396;2023-01-29T14:05:38;-4.30;53.00
67182;DHT22;54114;53.524;49.396;2023-01-29T14:10:35;-4.40;53.30
67182;DHT22;54114;53.524;49.396;2023-01-29T14:15:29;-4.60;53.50
67182;DHT22;54114;53.524;49.396;2023-01-29T14:29:06;-4.80;54.10
67182;DHT22;54114;53.524;49.396;2023-01-29T14:31:48;-4.90;54.20
67182;DHT22;54114;53.524;49.396;2023-01-29T14:34:24;-4.90;54.30
67182;DHT22;54114;53.524;49.396;2023-01-29T14:36:54;-5.00;54.20
67182;DHT22;54114;53.524;49.396;2023-01-29T14:39:31;-5.00;54.30
67182;DHT22;54114;53.524;49.396;2023-01-29T14:42:03;-5.10;54.40
67182;DHT22;54114;53.524;49.396;2023-01-29T14:49:55;-5.30;54.90
67182;DHT22;54114;53.524;49.396;2023-01-29T14:52:36;-5.30;55.10
67182;DHT22;54114;53.524;49.396;2023-01-29T14:58:12;-5.40;55.60
67182;DHT22;54114;53.524;49.396;2023-01-29T15:00:44;-5.50;55.80
67182;DHT22;54114;53.524;49.396;2023-01-29T15:03:27;-5.50;56.20
67182;DHT22;54114;53.524;49.396;2023-01-29T15:06:08;-5.50;56.70
67182;DHT22;54114;53.524;49.396;2023-01-29T15:08:54;-5.50;57.20
67182;DHT22;54114;53.524;49.396;2023-01-29T15:14:25;-5.60;57.50
67182;DHT22;54114;53.524;49.396;2023-01-29T15:19:35;-5.60;58.60
67182;DHT22;54114;53.524;49.396;2023-01-29T15:22:20;-5.60;58.20
67182;DHT22;54114;53.524;49.396;2023-01-29T15:25:08;-5.60;58.30
67182;DHT22;54114;53.524;49.396;2023-01-29T15:27:42;-5.70;58.50
67182;DHT22;54114;53.524;49.396;2023-01-29T15:30:13;-5.70;58.80
67182;DHT22;54114;53.524;49.396;2023-01-29T15:32:47;-5.80;59.00
67182;DHT22;54114;53.524;49.396;2023-01-29T15:35:26;-5.80;59.20
67182;DHT22;54114;53.524;49.396;2023-01-29T15:37:57;-5.80;59.40
67182;DHT22;54114;53.524;49.396;2023-01-29T15:40:39;-5.80;59.50
67182;DHT22;54114;53.524;49.396;2023-01-29T15:43:42;-5.80;59.80
67182;DHT22;54114;53.524;49.396;2023-01-29T15:46:03;-5.80;59.90
67182;DHT22;54114;53.524;49.396;2023-01-29T15:48:43;-5.80;60.20
67182;DHT22;54114;53.524;49.396;2023-01-29T15:51:20;-5.80;60.30
67182;DHT22;54114;53.524;49.396;2023-01-29T15:53:54;-5.70;60.50
67182;DHT22;54114;53.524;49.396;2023-01-29T15:56:27;-5.70;60.70
67182;DHT22;54114;53.524;49.396;2023-01-29T15:59:03;-5.70;60.80
67182;DHT22;54114;53.524;49.396;2023-01-29T16:01:31;-5.70;61.50
67182;DHT22;54114;53.524;49.396;2023-01-29T16:03:57;-5.70;60.80
67182;DHT22;54114;53.524;49.396;2023-01-29T16:06:37;-5.70;60.70
67182;DHT22;54114;53.524;49.396;2023-01-29T16:09:14;-5.70;60.70
67182;DHT22;54114;53.524;49.396;2023-01-29T16:11:49;-5.70;60.70
67182;DHT22;54114;53.524;49.396;2023-01-29T16:14:18;-5.70;60.60
67182;DHT22;54114;53.524;49.396;2023-01-29T16:16:46;-5.70;60.60
67182;DHT22;54114;53.524;49.396;2023-01-29T16:19:23;-5.70;60.60
67182;DHT22;54114;53.524;49.396;2023-01-29T16:22:03;-5.60;60.70
67182;DHT22;54114;53.524;49.396;2023-01-29T16:24:31;-5.60;60.70
67182;DHT22;54114;53.524;49.396;2023-01-29T16:27:01;-5.60;60.70
67182;DHT22;54114;53.524;49.396;2023-01-29T16:29:32;-5.60;60.80
67182;DHT22;54114;53.524;49.396;2023-01-29T16:32:00;-5.60;60.90
67182;DHT22;54114;53.524;49.396;2023-01-29T16:34:40;-5.60;61.00
67182;DHT22;54114;53.524;49.396;2023-01-29T16:37:18;-5.60;61.10
67182;DHT22;54114;53.524;49.396;2023-01-29T16:39:49;-5.60;61.00
67182;DHT22;54114;53.524;49.396;2023-01-29T16:42:20;-5.70;61.10
67182;DHT22;54114;53.524;49.396;2023-01-29T16:44:51;-5.70;61.20
67182;DHT22;54114;53.524;49.396;2023-01-29T16:53:10;-5.70;61.10
67182;DHT22;54114;53.524;49.396;2023-01-29T16:55:41;-5.70;61.10
67182;DHT22;54114;53.524;49.396;2023-01-29T16:58:26;-5.70;61.10
67182;DHT22;54114;53.524;49.396;2023-01-29T17:00:58;-5.80;61.20
67182;DHT22;54114;53.524;49.396;2023-01-29T17:03:27;-5.80;62.10
67182;DHT22;54114;53.524;49.396;2023-01-29T17:06:20;-5.90;61.60
67182;DHT22;54114;53.524;49.396;2023-01-29T17:09:00;-5.90;61.70
67182;DHT22;54114;53.524;49.396;2023-01-29T17:11:37;-6.00;61.80
67182;DHT22;54114;53.524;49.396;2023-01-29T17:14:07;-6.00;61.90
67182;DHT22;54114;53.524;49.396;2023-01-29T17:16:51;-6.00;62.00
67182;DHT22;54114;53.524;49.396;2023-01-29T17:19:25;-6.10;62.10
67182;DHT22;54114;53.524;49.396;2023-01-29T17:21:57;-6.10;62.10
67182;DHT22;54114;53.524;49.396;2023-01-29T17:24:24;-6.10;62.30
67182;DHT22;54114;53.524;49.396;2023-01-29T17:26:51;-6.10;62.40
67182;DHT22;54114;53.524;49.396;2023-01-29T17:29:19;-6.20;62.40
67182;DHT22;54114;53.524;49.396;2023-01-29T17:31:47;-6.20;62.50
67182;DHT22;54114;53.524;49.396;2023-01-29T17:34:26;-6.20;62.50
67182;DHT22;54114;53.524;49.396;2023-01-29T17:37:04;-6.20;62.50
67182;DHT22;54114;53.524;49.396;2023-01-29T17:39:30;-6.30;62.50
67182;DHT22;54114;53.524;49.396;2023-01-29T17:41:57;-6.40;62.60
67182;DHT22;54114;53.524;49.396;2023-01-29T17:44:24;-6.40;62.70
67182;DHT22;54114;53.524;49.396;2023-01-29T17:46:53;-6.40;62.80
67182;DHT22;54114;53.524;49.396;2023-01-29T17:49:28;-6.40;62.90
67182;DHT22;54114;53.524;49.396;2023-01-29T17:51:57;-6.50;63.00
67182;DHT22;54114;53.524;49.396;2023-01-29T17:54:41;-6.50;63.00
67182;DHT22;54114;53.524;49.396;2023-01-29T17:57:08;-6.60;63.10
67182;DHT22;54114;53.524;49.396;2023-01-29T17:59:35;-6.60;63.20
67182;DHT22;54114;53.524;49.396;2023-01-29T18:02:02;-6.60;63.30
67182;DHT22;54114;53.524;49.396;2023-01-29T18:04:28;-6.60;63.40
67182;DHT22;54114;53.524;49.396;2023-01-29T18:06:55;-6.70;63.40
67182;DHT22;54114;53.524;49.396;2023-01-29T18:09:22;-6.70;63.50
67182;DHT22;54114;53.524;49.396;2023-01-29T18:11:49;-6.90;63.40
67182;DHT22;54114;53.524;49.396;2023-01-29T18:14:16;-7.00;63.30